Djambala Airport


Codes: FCBD/DJM
Name: Djambala Airport
City: Djambala
Country: Congo [Republic]
Elevation: 2595 ft.

Photos at Djambala Airport


   Photos courtesy of SpottingLog. You can add your own sightings and photos by signing up for a free trial today.



No photos found.

Weather at Djambala Airport


Time (UTC)DescriptionTempratureWindCloud coverageVisibilityPressureHumidity
18-Apr-2024 00:00Light Rain22°C2 mph, SW99%9994m1011hPa82%
18-Apr-2024 03:00Light Rain22°C4 mph, SW99%10000m1011hPa86%
18-Apr-2024 06:00Light Rain22°C4 mph, SW100%10000m1012hPa87%
18-Apr-2024 09:00Overcast Clouds28°C7 mph, S90%10000m1012hPa65%
18-Apr-2024 12:00Light Rain30°C4 mph, SE64%10000m1010hPa54%
18-Apr-2024 15:00Broken Clouds30°C4 mph, SE80%10000m1007hPa51%
18-Apr-2024 18:00Light Rain22°C2 mph, SE90%10000m1011hPa86%
18-Apr-2024 21:00Light Rain22°C4 mph, W100%10000m1012hPa90%
19-Apr-2024 00:00Overcast Clouds21°C2 mph, SW100%10000m1012hPa91%
19-Apr-2024 03:00Overcast Clouds21°C2 mph, S100%10000m1011hPa91%
19-Apr-2024 06:00Overcast Clouds22°C2 mph, SW100%10000m1013hPa84%
19-Apr-2024 09:00Overcast Clouds29°C2 mph, SE100%10000m1012hPa54%
19-Apr-2024 12:00Overcast Clouds31°C7 mph, SE100%10000m1009hPa46%
19-Apr-2024 15:00Overcast Clouds30°C7 mph, SE100%10000m1008hPa51%
19-Apr-2024 18:00Overcast Clouds26°C4 mph, SE99%10000m1009hPa68%
19-Apr-2024 21:00Light Rain20°C4 mph, SE100%10000m1011hPa86%
20-Apr-2024 00:00Overcast Clouds21°C2 mph, SW100%10000m1010hPa77%
20-Apr-2024 03:00Overcast Clouds22°C0 mph, N100%10000m1010hPa78%
20-Apr-2024 06:00Overcast Clouds22°C4 mph, W93%10000m1012hPa78%
20-Apr-2024 09:00Broken Clouds29°C2 mph, S74%10000m1012hPa55%
20-Apr-2024 12:00Broken Clouds31°C4 mph, S80%10000m1009hPa46%
20-Apr-2024 15:00Overcast Clouds30°C7 mph, SE100%10000m1007hPa51%
20-Apr-2024 18:00Overcast Clouds25°C4 mph, S100%10000m1008hPa70%
20-Apr-2024 21:00Light Rain23°C4 mph, SW100%10000m1010hPa79%
21-Apr-2024 00:00Light Rain22°C2 mph, S100%10000m1010hPa83%
21-Apr-2024 03:00Overcast Clouds22°C2 mph, S99%10000m1009hPa89%
21-Apr-2024 06:00Overcast Clouds23°C2 mph, SE99%10000m1010hPa84%
21-Apr-2024 09:00Overcast Clouds29°C4 mph, SE95%10000m1011hPa57%
21-Apr-2024 12:00Broken Clouds31°C7 mph, SE63%10000m1008hPa48%
21-Apr-2024 15:00Scattered Clouds30°C7 mph, SE34%10000m1006hPa54%
21-Apr-2024 18:00Scattered Clouds25°C4 mph, S30%10000m1007hPa73%
21-Apr-2024 21:00Light Rain22°C2 mph, NW16%10000m1009hPa85%
22-Apr-2024 00:00Light Rain22°C2 mph, S35%10000m1009hPa85%
22-Apr-2024 03:00Scattered Clouds21°C2 mph, S44%10000m1009hPa86%
22-Apr-2024 06:00Broken Clouds23°C2 mph, S67%10000m1011hPa82%
22-Apr-2024 09:00Light Rain29°C4 mph, SE87%10000m1011hPa57%
22-Apr-2024 12:00Light Rain31°C7 mph, SE83%10000m1008hPa47%
22-Apr-2024 15:00Moderate Rain26°C11 mph, NE100%6040m1006hPa74%
22-Apr-2024 18:00Heavy Intensity Rain20°C4 mph, NW100%4184m1009hPa95%
22-Apr-2024 21:00Moderate Rain21°C4 mph, SW100%10000m1011hPa97%